Terminal Aerodrome Forecast
Issued by NWS

Home | Current Version | Previous Version | Text Only | Print | Product List | Glossary On
Versions: 1 2 3 4 5 6 7 8 9 10 11 12 13 14 15 16 17 18 19 20
000
FTUS46 KSEW 290600 AAB
TAFCLM
TAF AMD
KCLM 290626Z 2906/3006 29010G20KT P6SM VCSH OVC020
      TEMPO 2906/2910 2SM -SHSN BKN015
     FM291000 03012G22KT P6SM -SHSN OVC018
      TEMPO 2910/2914 2SM -SN BR OVC015
     FM291700 05012G22KT P6SM -SHSN BKN030
     FM292200 06012KT P6SM BKN040=

USA.gov is the U.S. government's official web portal to all federal, state and local government web resources and services.